Time;durP1;ratioP1;P1;durP2;ratioP2;P2;SDS_P1;SDS_P2;PMS_P1;PMS_P2;Temp;Humidity;BMP_temperature;BMP_pressure;BME280_temperature;BME280_humidity;BME280_pressure;Samples;Min_cycle;Max_cycle;Signal;HPM_P1;HPM_P2
2023/07/06 00:02:09;;;;;;;12.13;7.63;;;;;;;;;;5056600;28;20039;-78
2023/07/06 00:04:36;;;;;;;11.88;7.70;;;;;;;;;;5056532;28;20029;-77
2023/07/06 00:07:02;;;;;;;13.98;7.60;;;;;;;;;;5022815;28;20072;-78
2023/07/06 00:09:28;;;;;;;11.75;7.85;;;;;;;;;;5038244;28;20071;-78
2023/07/06 00:11:55;;;;;;;11.85;7.45;;;;;;;;;;5022037;28;20041;-79
2023/07/06 00:14:24;;;;;;;11.48;7.82;;;;;;;;;;5056402;28;20035;-79
2023/07/06 00:17:06;;;;;;;9.27;8.10;;;;;;;;;;5056278;28;20029;-79
2023/07/06 00:19:31;;;;;;;12.88;8.25;;;;;;;;;;5039401;28;20058;-79
2023/07/06 00:21:57;;;;;;;16.17;8.57;;;;;;;;;;5056152;28;20029;-78
2023/07/06 00:24:24;;;;;;;12.25;8.20;;;;;;;;;;5055903;28;20116;-78
2023/07/06 00:26:49;;;;;;;16.73;8.35;;;;;;;;;;5056267;28;20063;-78
2023/07/06 00:29:15;;;;;;;11.88;7.68;;;;;;;;;;5038059;28;20033;-79
2023/07/06 00:31:51;;;;;;;11.27;8.05;;;;;;;;;;5056108;28;20175;-78
2023/07/06 00:34:17;;;;;;;14.43;7.43;;;;;;;;;;5056016;28;20515;-78
2023/07/06 00:36:43;;;;;;;13.88;7.70;;;;;;;;;;5021951;28;20143;-78
2023/07/06 00:39:12;;;;;;;12.15;8.38;;;;;;;;;;5037921;28;20472;-79
2023/07/06 00:41:38;;;;;;;12.20;8.55;;;;;;;;;;5038552;28;20440;-79
2023/07/06 00:44:04;;;;;;;11.02;8.30;;;;;;;;;;5036810;28;20047;-79
2023/07/06 00:46:38;;;;;;;16.73;9.38;;;;;;;;;;5021595;28;20029;-78
2023/07/06 00:49:05;;;;;;;19.48;9.13;;;;;;;;;;5006756;28;20056;-78
2023/07/06 00:51:36;;;;;;;12.50;9.13;;;;;;;;;;5021793;28;20025;-79
2023/07/06 00:54:12;;;;;;;14.82;9.13;;;;;;;;;;5021067;28;20365;-79
2023/07/06 00:56:40;;;;;;;14.48;9.48;;;;;;;;;;5037860;28;20448;-78
2023/07/06 00:59:06;;;;;;;14.27;8.93;;;;;;;;;;5021202;28;20033;-79
2023/07/06 01:01:36;;;;;;;14.75;8.90;;;;;;;;;;5004885;28;20029;-79
2023/07/06 01:04:02;;;;;;;16.13;9.23;;;;;;;;;;5004909;28;20036;-78
2023/07/06 01:06:36;;;;;;;14.05;9.13;;;;;;;;;;5004827;28;20040;-79
2023/07/06 01:09:04;;;;;;;18.33;10.23;;;;;;;;;;5037530;28;20039;-78
2023/07/06 01:11:29;;;;;;;14.57;9.50;;;;;;;;;;5055277;28;20372;-78
2023/07/06 01:13:55;;;;;;;13.55;9.45;;;;;;;;;;5037418;28;20025;-79
2023/07/06 01:16:54;;;;;;;12.50;9.48;;;;;;;;;;5055160;28;20025;-79
2023/07/06 01:19:28;;;;;;;14.93;9.77;;;;;;;;;;5013509;28;20040;-79
2023/07/06 01:22:00;;;;;;;13.65;10.52;;;;;;;;;;5037263;28;20467;-79
2023/07/06 01:24:50;;;;;;;15.18;10.55;;;;;;;;;;5055177;28;20029;-78
2023/07/06 01:27:33;;;;;;;18.08;10.60;;;;;;;;;;5054958;28;20025;-78
2023/07/06 01:30:24;;;;;;;12.55;10.10;;;;;;;;;;5054741;28;20043;-78
2023/07/06 01:32:52;;;;;;;14.35;10.20;;;;;;;;;;5054791;28;20032;-79
2023/07/06 01:35:23;;;;;;;20.48;10.52;;;;;;;;;;5037254;28;20468;-80
2023/07/06 01:37:49;;;;;;;15.70;10.48;;;;;;;;;;5020549;28;20032;-80
2023/07/06 01:40:14;;;;;;;15.32;9.82;;;;;;;;;;5004628;28;20025;-80
2023/07/06 01:42:40;;;;;;;13.80;10.07;;;;;;;;;;5036904;28;20048;-79
2023/07/06 01:45:08;;;;;;;16.60;11.45;;;;;;;;;;5036760;28;20045;-79
2023/07/06 01:47:41;;;;;;;15.20;10.20;;;;;;;;;;5020288;28;20118;-80
2023/07/06 01:50:09;;;;;;;14.88;10.70;;;;;;;;;;5020148;28;20036;-80
2023/07/06 01:53:06;;;;;;;18.27;10.55;;;;;;;;;;5020381;28;20040;-80
2023/07/06 01:55:43;;;;;;;20.90;10.48;;;;;;;;;;5023433;28;20029;-79
2023/07/06 01:58:32;;;;;;;14.55;10.07;;;;;;;;;;5036761;28;20032;-80
2023/07/06 02:01:10;;;;;;;14.75;10.35;;;;;;;;;;5054208;28;20368;-79
2023/07/06 02:03:36;;;;;;;15.63;11.40;;;;;;;;;;5054301;28;20054;-80
2023/07/06 02:06:03;;;;;;;15.68;10.70;;;;;;;;;;5036378;28;20456;-79
2023/07/06 02:08:28;;;;;;;20.05;12.88;;;;;;;;;;5019916;28;20131;-79
2023/07/06 02:10:53;;;;;;;18.63;14.15;;;;;;;;;;5036494;28;20146;-80
2023/07/06 02:13:19;;;;;;;22.38;14.30;;;;;;;;;;5036371;28;20128;-80
2023/07/06 02:15:45;;;;;;;21.30;13.93;;;;;;;;;;5054138;28;20100;-80
2023/07/06 02:18:12;;;;;;;17.52;13.05;;;;;;;;;;5036417;28;20036;-80
2023/07/06 02:20:39;;;;;;;21.60;13.70;;;;;;;;;;5036230;28;20340;-80
2023/07/06 02:23:07;;;;;;;15.63;12.55;;;;;;;;;;5053337;28;20037;-79
2023/07/06 02:25:33;;;;;;;19.15;12.05;;;;;;;;;;5020308;28;20025;-78
2023/07/06 02:27:59;;;;;;;18.15;11.90;;;;;;;;;;5036386;28;20028;-79
2023/07/06 02:30:24;;;;;;;18.00;11.30;;;;;;;;;;5035342;28;20103;-79
2023/07/06 02:32:50;;;;;;;15.25;11.10;;;;;;;;;;5036058;28;20025;-80
2023/07/06 02:35:15;;;;;;;15.95;10.68;;;;;;;;;;5053764;28;20485;-80
2023/07/06 02:37:41;;;;;;;13.70;10.35;;;;;;;;;;5036320;28;20144;-81
2023/07/06 02:40:10;;;;;;;14.05;10.05;;;;;;;;;;5036224;28;20025;-79
2023/07/06 02:42:42;;;;;;;13.73;9.52;;;;;;;;;;5056580;28;20025;-80
2023/07/06 02:45:09;;;;;;;14.30;8.32;;;;;;;;;;5058060;28;20080;-79
2023/07/06 02:47:36;;;;;;;13.38;8.65;;;;;;;;;;5040704;28;20405;-79
2023/07/06 02:50:02;;;;;;;10.75;7.93;;;;;;;;;;5057524;28;20032;-80
2023/07/06 02:52:28;;;;;;;11.27;7.90;;;;;;;;;;5058049;28;20059;-79
2023/07/06 02:54:53;;;;;;;9.57;8.02;;;;;;;;;;5023533;28;20033;-79
2023/07/06 02:57:19;;;;;;;13.68;8.18;;;;;;;;;;5057707;28;20029;-80
2023/07/06 02:59:45;;;;;;;12.48;8.40;;;;;;;;;;5040670;28;20120;-80
2023/07/06 03:02:12;;;;;;;10.60;7.70;;;;;;;;;;5057838;28;20078;-80
2023/07/06 03:04:37;;;;;;;12.63;7.30;;;;;;;;;;5057486;28;20089;-81
2023/07/06 03:07:04;;;;;;;12.00;7.38;;;;;;;;;;5023677;28;20037;-79
2023/07/06 03:09:29;;;;;;;13.00;7.60;;;;;;;;;;5057707;28;20033;-79
2023/07/06 03:11:55;;;;;;;10.15;7.13;;;;;;;;;;5023026;28;20033;-80
2023/07/06 03:14:25;;;;;;;16.15;7.05;;;;;;;;;;5039858;28;20108;-80
2023/07/06 03:16:54;;;;;;;11.52;6.93;;;;;;;;;;5057399;28;20036;-80
2023/07/06 03:19:20;;;;;;;12.32;7.57;;;;;;;;;;5039228;28;20021;-80
2023/07/06 03:21:46;;;;;;;14.77;6.97;;;;;;;;;;5039763;28;20155;-80
2023/07/06 03:24:11;;;;;;;14.63;7.20;;;;;;;;;;5023222;28;20356;-80
2023/07/06 03:26:37;;;;;;;16.33;7.90;;;;;;;;;;5039435;28;20035;-79
2023/07/06 03:29:06;;;;;;;13.02;7.35;;;;;;;;;;5057290;28;20103;-80
2023/07/06 03:31:35;;;;;;;8.63;6.68;;;;;;;;;;5023035;28;20025;-80
2023/07/06 03:34:01;;;;;;;14.02;7.32;;;;;;;;;;5039927;28;20697;-81
2023/07/06 03:36:27;;;;;;;12.07;7.10;;;;;;;;;;5039333;28;20068;-80
2023/07/06 03:38:52;;;;;;;14.73;7.25;;;;;;;;;;5057583;28;20048;-80
2023/07/06 03:41:18;;;;;;;10.07;7.00;;;;;;;;;;5039186;28;20452;-80
2023/07/06 03:43:44;;;;;;;17.50;7.85;;;;;;;;;;5039035;28;20049;-80
2023/07/06 03:46:10;;;;;;;11.70;7.20;;;;;;;;;;5038963;28;20029;-79
2023/07/06 03:48:36;;;;;;;11.38;6.90;;;;;;;;;;5039309;28;20184;-80
2023/07/06 03:51:03;;;;;;;13.50;7.35;;;;;;;;;;5056687;28;20037;-79
2023/07/06 03:53:30;;;;;;;8.35;7.05;;;;;;;;;;5038651;28;20037;-80
2023/07/06 03:55:55;;;;;;;10.95;7.25;;;;;;;;;;5039136;28;20025;-80
2023/07/06 03:58:21;;;;;;;12.88;7.53;;;;;;;;;;5056605;28;20036;-79
2023/07/06 04:00:47;;;;;;;11.07;7.55;;;;;;;;;;5038697;28;20115;-80
2023/07/06 04:03:12;;;;;;;13.05;7.40;;;;;;;;;;5056497;28;20440;-80
2023/07/06 04:05:40;;;;;;;10.93;7.40;;;;;;;;;;5038683;28;20032;-79
2023/07/06 04:08:08;;;;;;;14.43;7.40;;;;;;;;;;5038858;28;20025;-80
2023/07/06 04:10:34;;;;;;;13.05;7.43;;;;;;;;;;5056457;28;20108;-80
2023/07/06 04:12:59;;;;;;;16.02;7.18;;;;;;;;;;5056513;28;20029;-81
2023/07/06 04:15:25;;;;;;;11.70;7.10;;;;;;;;;;5056067;28;20017;-80
2023/07/06 04:17:52;;;;;;;14.27;6.82;;;;;;;;;;5022332;28;20052;-80
2023/07/06 04:20:22;;;;;;;10.27;7.25;;;;;;;;;;5056232;28;20032;-80
2023/07/06 04:22:48;;;;;;;13.13;7.38;;;;;;;;;;5038468;28;20028;-80
2023/07/06 04:25:15;;;;;;;10.05;6.88;;;;;;;;;;5022088;28;20082;-80
2023/07/06 04:27:42;;;;;;;15.27;7.60;;;;;;;;;;5038844;28;20070;-79
2023/07/06 04:30:10;;;;;;;11.63;8.13;;;;;;;;;;5038061;28;20057;-80
2023/07/06 04:32:36;;;;;;;12.18;7.10;;;;;;;;;;5038277;28;20102;-80
2023/07/06 04:35:01;;;;;;;15.70;7.60;;;;;;;;;;5021697;28;20024;-80
2023/07/06 04:37:28;;;;;;;15.73;7.05;;;;;;;;;;5021553;28;20079;-79
2023/07/06 04:39:53;;;;;;;12.07;7.38;;;;;;;;;;5055853;28;20079;-80
2023/07/06 04:42:19;;;;;;;15.48;7.80;;;;;;;;;;5056010;28;20456;-79
2023/07/06 04:44:45;;;;;;;13.20;8.68;;;;;;;;;;5055399;28;20037;-79
2023/07/06 04:47:11;;;;;;;15.25;8.75;;;;;;;;;;5038170;28;20033;-78
2023/07/06 04:49:37;;;;;;;12.73;8.55;;;;;;;;;;5055681;28;20036;-80
2023/07/06 04:52:03;;;;;;;14.70;8.00;;;;;;;;;;5037949;28;20031;-80
2023/07/06 04:54:30;;;;;;;16.20;7.80;;;;;;;;;;5055789;28;20120;-80
2023/07/06 04:56:56;;;;;;;13.73;7.28;;;;;;;;;;5038010;28;20029;-81
2023/07/06 04:59:21;;;;;;;17.52;7.55;;;;;;;;;;5055080;28;20056;-79
2023/07/06 05:01:47;;;;;;;13.13;7.63;;;;;;;;;;5037769;28;20029;-80
2023/07/06 05:04:12;;;;;;;15.73;7.15;;;;;;;;;;5056579;28;20130;-80
2023/07/06 05:06:38;;;;;;;13.63;7.00;;;;;;;;;;5063488;28;20024;-79
2023/07/06 05:09:03;;;;;;;15.80;7.55;;;;;;;;;;5041606;28;20025;-80
2023/07/06 05:11:30;;;;;;;13.35;7.07;;;;;;;;;;5055472;28;20035;-80
2023/07/06 05:13:56;;;;;;;11.25;6.60;;;;;;;;;;5038037;28;20044;-79
2023/07/06 05:16:22;;;;;;;10.55;7.03;;;;;;;;;;5054390;28;20056;-80
2023/07/06 05:18:48;;;;;;;12.73;7.13;;;;;;;;;;5016582;28;20507;-79
2023/07/06 05:21:14;;;;;;;13.15;7.05;;;;;;;;;;5058904;28;20025;-80
2023/07/06 05:23:40;;;;;;;14.07;6.75;;;;;;;;;;5077398;28;20013;-78
2023/07/06 05:26:06;;;;;;;17.20;6.68;;;;;;;;;;5069982;28;20028;-81
2023/07/06 05:28:31;;;;;;;15.80;6.90;;;;;;;;;;5045577;28;20466;-80
2023/07/06 05:31:00;;;;;;;14.95;6.65;;;;;;;;;;5074853;28;20020;-80
2023/07/06 05:33:25;;;;;;;20.58;6.72;;;;;;;;;;5037630;28;20519;-85
2023/07/06 05:35:51;;;;;;;11.45;6.78;;;;;;;;;;5055093;28;20075;-85
2023/07/06 05:38:16;;;;;;;12.15;6.40;;;;;;;;;;5053920;28;20112;-85
2023/07/06 05:40:42;;;;;;;14.68;6.20;;;;;;;;;;5021895;28;20033;-85
2023/07/06 05:43:08;;;;;;;10.93;6.20;;;;;;;;;;5008973;28;20425;-84
2023/07/06 05:45:33;;;;;;;11.65;5.72;;;;;;;;;;5042039;28;20059;-85
2023/07/06 05:47:58;;;;;;;9.75;6.05;;;;;;;;;;5025471;28;20440;-85
2023/07/06 05:50:24;;;;;;;13.13;5.68;;;;;;;;;;5058099;28;20036;-84
2023/07/06 05:52:50;;;;;;;11.65;5.63;;;;;;;;;;5039596;28;20051;-83
2023/07/06 05:55:15;;;;;;;6.78;5.47;;;;;;;;;;5023412;28;20033;-84
2023/07/06 05:57:41;;;;;;;7.50;5.28;;;;;;;;;;5040556;28;20033;-84
2023/07/06 06:00:11;;;;;;;6.50;5.07;;;;;;;;;;5024317;28;20513;-84
2023/07/06 06:02:37;;;;;;;9.75;5.30;;;;;;;;;;5042364;28;20056;-84
2023/07/06 06:05:04;;;;;;;9.80;5.60;;;;;;;;;;5027107;28;20055;-82
2023/07/06 06:07:31;;;;;;;10.15;5.68;;;;;;;;;;5060176;28;20053;-82
2023/07/06 06:09:57;;;;;;;9.32;5.40;;;;;;;;;;5011384;28;20124;-87
2023/07/06 06:12:23;;;;;;;12.85;5.38;;;;;;;;;;5044244;28;20032;-87
2023/07/06 06:14:50;;;;;;;7.65;5.05;;;;;;;;;;5060089;28;20029;-84
2023/07/06 06:17:16;;;;;;;6.38;5.03;;;;;;;;;;5040604;28;20025;-84
2023/07/06 06:19:42;;;;;;;8.35;5.90;;;;;;;;;;5058782;28;20044;-85
2023/07/06 06:22:09;;;;;;;10.27;5.22;;;;;;;;;;5040268;28;20086;-84
2023/07/06 06:24:34;;;;;;;7.82;5.60;;;;;;;;;;5042087;28;20024;-83
2023/07/06 06:27:00;;;;;;;8.70;5.40;;;;;;;;;;5060328;28;20025;-83
2023/07/06 06:29:33;;;;;;;10.73;5.80;;;;;;;;;;5027557;28;20364;-85
2023/07/06 06:31:59;;;;;;;8.13;5.57;;;;;;;;;;5043264;28;20033;-83
2023/07/06 06:34:26;;;;;;;7.57;5.10;;;;;;;;;;5059582;28;20021;-89
2023/07/06 06:36:51;;;;;;;9.93;5.68;;;;;;;;;;5057715;28;20033;-85
2023/07/06 06:39:17;;;;;;;8.10;5.70;;;;;;;;;;5040900;28;20024;-85
2023/07/06 06:41:43;;;;;;;11.25;5.70;;;;;;;;;;5041233;28;20021;-84
2023/07/06 06:44:11;;;;;;;9.48;5.55;;;;;;;;;;5041164;28;20041;-86
2023/07/06 06:46:37;;;;;;;7.15;5.53;;;;;;;;;;5064972;28;20048;-86
2023/07/06 06:49:02;;;;;;;5.70;4.75;;;;;;;;;;5068106;28;20059;-86
2023/07/06 06:51:29;;;;;;;8.13;5.50;;;;;;;;;;5064467;28;20040;-85
2023/07/06 06:53:55;;;;;;;13.43;5.60;;;;;;;;;;5063380;28;20028;-85
2023/07/06 06:56:22;;;;;;;11.55;5.15;;;;;;;;;;5043036;28;20533;-85
2023/07/06 06:58:48;;;;;;;7.47;5.15;;;;;;;;;;5045097;28;20032;-85
2023/07/06 07:01:13;;;;;;;8.43;5.43;;;;;;;;;;5043815;28;20437;-84
2023/07/06 07:03:39;;;;;;;8.70;5.28;;;;;;;;;;5042810;28;20032;-83
2023/07/06 07:06:12;;;;;;;10.00;4.88;;;;;;;;;;5043065;28;20033;-85
2023/07/06 07:08:49;;;;;;;11.90;4.90;;;;;;;;;;5041888;28;20032;-82
2023/07/06 07:11:20;;;;;;;7.63;4.88;;;;;;;;;;5042196;28;20053;-84
2023/07/06 07:13:49;;;;;;;11.23;4.97;;;;;;;;;;5060349;28;20379;-83
2023/07/06 07:16:15;;;;;;;5.93;4.65;;;;;;;;;;5041569;28;20025;-83
2023/07/06 07:18:42;;;;;;;11.05;4.72;;;;;;;;;;5040504;28;20464;-83
2023/07/06 07:21:09;;;;;;;6.90;4.47;;;;;;;;;;5042401;28;20025;-83
2023/07/06 07:23:37;;;;;;;7.32;4.25;;;;;;;;;;5025226;28;20025;-81
2023/07/06 07:26:05;;;;;;;7.30;4.13;;;;;;;;;;5041950;28;20064;-84
2023/07/06 07:28:31;;;;;;;8.65;4.50;;;;;;;;;;5061835;28;20068;-84
2023/07/06 07:30:57;;;;;;;11.45;4.53;;;;;;;;;;5046628;28;20044;-85
2023/07/06 07:33:23;;;;;;;6.90;4.32;;;;;;;;;;5065461;28;20037;-84
2023/07/06 07:35:51;;;;;;;7.43;4.38;;;;;;;;;;5037677;28;20037;-83
2023/07/06 07:38:17;;;;;;;13.45;4.55;;;;;;;;;;5048936;28;20451;-82
2023/07/06 07:41:01;;;;;;;8.95;4.30;;;;;;;;;;5069886;28;20021;-83
2023/07/06 07:43:31;;;;;;;13.40;4.80;;;;;;;;;;5048890;28;20089;-83
2023/07/06 07:46:00;;;;;;;8.68;3.97;;;;;;;;;;5045970;28;20032;-83
2023/07/06 07:48:26;;;;;;;6.55;4.28;;;;;;;;;;5029073;28;20037;-83
2023/07/06 07:50:53;;;;;;;8.82;4.38;;;;;;;;;;5062668;28;20033;-83
2023/07/06 07:53:22;;;;;;;7.30;6.60;;;;;;;;;;5044996;28;20113;-83
2023/07/06 07:55:48;;;;;;;9.20;5.75;;;;;;;;;;5047018;28;20021;-83
2023/07/06 07:58:14;;;;;;;5.55;4.18;;;;;;;;;;5044021;28;20033;-84
2023/07/06 08:00:40;;;;;;;8.25;4.18;;;;;;;;;;5060718;28;20082;-83
2023/07/06 08:03:08;;;;;;;7.28;4.20;;;;;;;;;;5042306;28;20029;-82
2023/07/06 08:05:36;;;;;;;5.55;4.10;;;;;;;;;;5063383;28;20073;-82
2023/07/06 08:08:03;;;;;;;6.38;4.07;;;;;;;;;;5081118;28;20028;-83
2023/07/06 08:10:28;;;;;;;8.38;4.65;;;;;;;;;;5064632;28;20505;-85
2023/07/06 08:12:54;;;;;;;7.57;4.53;;;;;;;;;;5065480;28;20064;-82
2023/07/06 08:15:22;;;;;;;6.78;4.20;;;;;;;;;;5065194;28;20024;-83
2023/07/06 08:17:48;;;;;;;12.07;4.38;;;;;;;;;;5082114;28;20134;-82
2023/07/06 08:20:14;;;;;;;6.72;4.63;;;;;;;;;;5046916;28;20033;-83
2023/07/06 08:22:40;;;;;;;6.18;4.20;;;;;;;;;;5080942;28;20032;-82
2023/07/06 08:25:08;;;;;;;8.02;5.40;;;;;;;;;;5064927;28;20134;-82
2023/07/06 08:27:35;;;;;;;5.45;4.63;;;;;;;;;;5064452;28;20028;-82
2023/07/06 08:30:01;;;;;;;7.35;4.18;;;;;;;;;;5063739;28;20093;-85
2023/07/06 08:32:27;;;;;;;7.07;4.07;;;;;;;;;;5057803;28;20115;-83
2023/07/06 08:34:53;;;;;;;6.90;4.45;;;;;;;;;;5040996;28;20028;-85
2023/07/06 08:37:19;;;;;;;5.32;4.32;;;;;;;;;;5013581;28;20036;-84
2023/07/06 08:39:45;;;;;;;4.43;3.92;;;;;;;;;;5042434;28;20025;-83
2023/07/06 08:42:10;;;;;;;10.07;4.22;;;;;;;;;;5043055;28;20052;-84
2023/07/06 08:44:36;;;;;;;5.22;4.53;;;;;;;;;;5043603;28;20094;-83
2023/07/06 08:47:02;;;;;;;7.13;4.13;;;;;;;;;;5044570;28;20028;-83
2023/07/06 08:49:30;;;;;;;5.13;4.03;;;;;;;;;;5026560;28;20033;-85
2023/07/06 08:51:55;;;;;;;8.30;4.30;;;;;;;;;;5029069;28;20033;-83
2023/07/06 08:54:23;;;;;;;5.72;4.28;;;;;;;;;;5027804;28;20059;-83
2023/07/06 08:56:49;;;;;;;6.25;5.03;;;;;;;;;;5029668;28;20415;-83
2023/07/06 08:59:20;;;;;;;5.82;4.22;;;;;;;;;;5013218;28;20037;-84
2023/07/06 09:01:46;;;;;;;7.38;4.55;;;;;;;;;;5027067;28;20032;-82
2023/07/06 09:04:14;;;;;;;5.57;4.13;;;;;;;;;;5009129;28;20087;-83
2023/07/06 09:06:40;;;;;;;5.38;3.92;;;;;;;;;;5024904;28;20375;-83
2023/07/06 09:09:07;;;;;;;4.70;4.10;;;;;;;;;;5042902;28;20479;-81
2023/07/06 09:11:33;;;;;;;4.40;4.00;;;;;;;;;;5041943;28;20041;-83
2023/07/06 09:14:10;;;;;;;4.32;4.00;;;;;;;;;;5040852;28;20057;-83
2023/07/06 09:16:36;;;;;;;6.25;4.45;;;;;;;;;;5059985;28;20391;-82
2023/07/06 09:19:09;;;;;;;5.18;4.10;;;;;;;;;;5027481;28;20033;-83
2023/07/06 09:21:34;;;;;;;8.32;4.20;;;;;;;;;;5011138;28;20029;-84
2023/07/06 09:24:00;;;;;;;5.85;4.40;;;;;;;;;;5042453;28;20083;-84
2023/07/06 09:26:35;;;;;;;7.40;4.00;;;;;;;;;;5044183;28;20467;-84
2023/07/06 09:29:13;;;;;;;4.28;3.88;;;;;;;;;;5043302;28;20029;-83
2023/07/06 09:31:39;;;;;;;6.35;4.63;;;;;;;;;;5042632;28;20044;-83
2023/07/06 09:34:10;;;;;;;6.47;4.18;;;;;;;;;;5010454;28;20690;-84
2023/07/06 09:36:36;;;;;;;5.20;3.97;;;;;;;;;;5042433;28;20120;-84
2023/07/06 09:39:03;;;;;;;7.93;4.00;;;;;;;;;;5025981;28;20452;-84
2023/07/06 09:41:30;;;;;;;6.47;4.10;;;;;;;;;;5028615;28;20056;-83
2023/07/06 09:44:03;;;;;;;5.70;3.92;;;;;;;;;;5026614;28;20079;-82
2023/07/06 09:46:36;;;;;;;5.20;3.85;;;;;;;;;;5030002;28;20060;-83
2023/07/06 09:49:02;;;;;;;4.43;3.85;;;;;;;;;;5040862;28;20033;-83
2023/07/06 09:51:36;;;;;;;5.20;3.83;;;;;;;;;;5040356;28;20064;-82
2023/07/06 09:54:25;;;;;;;5.45;3.88;;;;;;;;;;5023448;28;20032;-83
2023/07/06 09:56:50;;;;;;;6.95;4.05;;;;;;;;;;5037888;28;20028;-83
2023/07/06 09:59:16;;;;;;;4.40;3.80;;;;;;;;;;5008161;28;20116;-83
2023/07/06 10:02:23;;;;;;;10.38;3.88;;;;;;;;;;5025564;28;20029;-83
2023/07/06 10:05:21;;;;;;;4.27;3.67;;;;;;;;;;5056141;28;20468;-84
2023/07/06 10:08:00;;;;;;;5.70;4.03;;;;;;;;;;5033388;28;20060;-84
2023/07/06 10:11:03;;;;;;;4.38;3.97;;;;;;;;;;5030748;28;20110;-83
2023/07/06 10:13:53;;;;;;;8.00;4.28;;;;;;;;;;4958000;29;20028;-84
2023/07/06 10:16:33;;;;;;;5.05;4.05;;;;;;;;;;5037750;28;20373;-83
2023/07/06 10:19:20;;;;;;;6.53;4.35;;;;;;;;;;5058029;28;20029;-83
2023/07/06 10:21:54;;;;;;;5.32;3.72;;;;;;;;;;5058119;28;20041;-83
2023/07/06 10:24:25;;;;;;;9.15;4.20;;;;;;;;;;5009602;28;20415;-83
2023/07/06 10:26:53;;;;;;;9.73;4.07;;;;;;;;;;5057322;28;20487;-84
2023/07/06 10:29:45;;;;;;;6.07;4.30;;;;;;;;;;5022946;28;20025;-83
2023/07/06 10:32:24;;;;;;;7.07;4.00;;;;;;;;;;5009783;28;20103;-79
2023/07/06 10:34:54;;;;;;;5.85;4.18;;;;;;;;;;5042932;28;20025;-81
2023/07/06 10:37:19;;;;;;;6.43;4.32;;;;;;;;;;5009117;28;20028;-78
2023/07/06 10:39:45;;;;;;;7.28;4.05;;;;;;;;;;5008257;28;20025;-79
2023/07/06 10:42:27;;;;;;;6.03;4.30;;;;;;;;;;5060148;28;20032;-79
2023/07/06 10:44:55;;;;;;;7.68;4.13;;;;;;;;;;5043454;28;20104;-79
2023/07/06 10:47:35;;;;;;;4.35;3.95;;;;;;;;;;5042688;28;20035;-80
2023/07/06 10:50:31;;;;;;;4.03;3.72;;;;;;;;;;5058949;28;20033;-79
2023/07/06 10:53:01;;;;;;;6.55;4.05;;;;;;;;;;5060626;28;20158;-80
2023/07/06 10:55:29;;;;;;;5.93;4.05;;;;;;;;;;5025575;28;20029;-78
2023/07/06 10:58:04;;;;;;;7.88;6.05;;;;;;;;;;5024866;28;20025;-79
2023/07/06 11:00:37;;;;;;;6.70;4.68;;;;;;;;;;5025956;28;20027;-79
2023/07/06 11:03:02;;;;;;;5.07;4.18;;;;;;;;;;5027615;28;20448;-79
2023/07/06 11:05:29;;;;;;;6.10;4.20;;;;;;;;;;5029067;28;20040;-79
2023/07/06 11:07:57;;;;;;;5.60;3.88;;;;;;;;;;5028461;28;20033;-79
2023/07/06 11:10:36;;;;;;;6.57;4.07;;;;;;;;;;5030411;28;20066;-80
2023/07/06 11:13:02;;;;;;;8.80;4.10;;;;;;;;;;5062340;28;20439;-80
2023/07/06 11:15:48;;;;;;;5.43;4.07;;;;;;;;;;5061555;28;20055;-81
2023/07/06 11:18:25;;;;;;;6.35;4.07;;;;;;;;;;5061154;28;20040;-80
2023/07/06 11:20:52;;;;;;;4.72;3.90;;;;;;;;;;5027425;28;20029;-78
2023/07/06 11:23:38;;;;;;;4.90;3.55;;;;;;;;;;5027541;28;20025;-78
2023/07/06 11:26:07;;;;;;;4.50;3.80;;;;;;;;;;5047194;28;20143;-81
2023/07/06 11:28:32;;;;;;;7.07;4.28;;;;;;;;;;5028225;28;20079;-80
2023/07/06 11:31:17;;;;;;;4.93;4.00;;;;;;;;;;5024849;28;20037;-80
2023/07/06 11:34:13;;;;;;;6.40;3.55;;;;;;;;;;5027668;28;20061;-80
2023/07/06 11:37:00;;;;;;;4.78;3.88;;;;;;;;;;5060881;28;20043;-80
2023/07/06 11:39:26;;;;;;;6.82;3.83;;;;;;;;;;5043174;28;20025;-81
2023/07/06 11:41:56;;;;;;;4.30;3.90;;;;;;;;;;5061171;28;20075;-80
2023/07/06 11:44:35;;;;;;;7.45;3.90;;;;;;;;;;5027266;28;20053;-80
2023/07/06 11:47:21;;;;;;;4.68;3.67;;;;;;;;;;5046185;28;20029;-80
2023/07/06 11:49:48;;;;;;;5.15;3.85;;;;;;;;;;5022063;28;20128;-80
2023/07/06 11:52:19;;;;;;;8.70;3.78;;;;;;;;;;5027057;28;20124;-81
2023/07/06 11:54:51;;;;;;;4.40;4.00;;;;;;;;;;5011365;28;20065;-80
2023/07/06 11:57:42;;;;;;;9.88;3.70;;;;;;;;;;5028104;28;20040;-80
2023/07/06 12:00:56;;;;;;;4.00;3.60;;;;;;;;;;5016756;28;20139;-80
2023/07/06 12:03:08;;;;;;;5.28;3.80;;;;;;;;;;5037220;28;20037;-79
2023/07/06 12:05:44;;;;;;;4.03;3.63;;;;;;;;;;5045499;28;20048;-80
2023/07/06 12:08:20;;;;;;;5.57;3.80;;;;;;;;;;5029940;28;20025;-80
2023/07/06 12:10:48;;;;;;;5.60;3.75;;;;;;;;;;5046339;28;20090;-79
2023/07/06 12:13:34;;;;;;;4.38;3.40;;;;;;;;;;5041655;28;20033;-79
2023/07/06 12:16:07;;;;;;;6.65;3.25;;;;;;;;;;5042377;28;20824;-80
2023/07/06 12:18:35;;;;;;;5.15;3.00;;;;;;;;;;5028231;28;20021;-79
2023/07/06 12:21:01;;;;;;;6.20;5.30;;;;;;;;;;5028279;28;20305;-80
2023/07/06 12:23:27;;;;;;;5.03;3.45;;;;;;;;;;5026901;28;20487;-79
2023/07/06 12:25:54;;;;;;;4.32;3.45;;;;;;;;;;5044334;28;20025;-79
2023/07/06 12:28:20;;;;;;;6.63;3.65;;;;;;;;;;5044500;28;20032;-78
2023/07/06 12:30:49;;;;;;;3.90;3.28;;;;;;;;;;5028058;28;20040;-79
2023/07/06 12:33:16;;;;;;;3.90;3.45;;;;;;;;;;5026611;28;20479;-80
2023/07/06 12:35:42;;;;;;;3.50;3.20;;;;;;;;;;5059997;28;20032;-78
2023/07/06 12:38:12;;;;;;;4.90;3.08;;;;;;;;;;5042680;28;20032;-79
2023/07/06 12:40:38;;;;;;;5.63;2.97;;;;;;;;;;5026852;28;20033;-80
2023/07/06 12:43:04;;;;;;;4.75;3.00;;;;;;;;;;5042636;28;20448;-78
2023/07/06 12:45:30;;;;;;;4.25;3.08;;;;;;;;;;5044550;28;20024;-78
2023/07/06 12:48:03;;;;;;;4.00;3.13;;;;;;;;;;5040437;28;20033;-79
2023/07/06 12:50:37;;;;;;;5.78;3.10;;;;;;;;;;5055803;28;20043;-82
2023/07/06 12:53:29;;;;;;;5.53;3.40;;;;;;;;;;5020709;28;20103;-80
2023/07/06 12:56:00;;;;;;;3.95;3.13;;;;;;;;;;5045368;28;20037;-79
2023/07/06 12:58:28;;;;;;;3.40;3.10;;;;;;;;;;5020483;28;20028;-80
2023/07/06 13:01:09;;;;;;;3.40;2.88;;;;;;;;;;5037121;28;20032;-80
2023/07/06 13:04:10;;;;;;;3.55;2.92;;;;;;;;;;5054105;28;20463;-80
2023/07/06 13:06:52;;;;;;;3.22;2.92;;;;;;;;;;5024279;28;20124;-79
2023/07/06 13:09:24;;;;;;;4.05;2.92;;;;;;;;;;5022129;28;20035;-79
2023/07/06 13:11:54;;;;;;;3.10;2.80;;;;;;;;;;5037769;28;20036;-79
2023/07/06 13:14:20;;;;;;;3.30;3.00;;;;;;;;;;5021917;28;20067;-80
2023/07/06 13:16:52;;;;;;;3.35;3.05;;;;;;;;;;5054582;28;20170;-80
2023/07/06 13:19:17;;;;;;;3.50;3.20;;;;;;;;;;5055204;28;20029;-80
2023/07/06 13:21:43;;;;;;;3.38;3.13;;;;;;;;;;5037426;28;20071;-80
2023/07/06 13:24:13;;;;;;;3.30;3.10;;;;;;;;;;5037422;28;20352;-80
2023/07/06 13:26:38;;;;;;;4.68;3.00;;;;;;;;;;5019027;28;20028;-80
2023/07/06 13:29:04;;;;;;;7.88;3.15;;;;;;;;;;5035791;28;20028;-79
2023/07/06 13:31:30;;;;;;;5.53;3.25;;;;;;;;;;5035320;28;20048;-79
2023/07/06 13:33:56;;;;;;;6.13;3.50;;;;;;;;;;5035561;28;20053;-80
2023/07/06 13:36:22;;;;;;;3.97;3.10;;;;;;;;;;5053116;28;20025;-80
2023/07/06 13:38:47;;;;;;;5.65;3.55;;;;;;;;;;5033819;28;20040;-80
2023/07/06 13:41:19;;;;;;;3.55;3.05;;;;;;;;;;5018249;28;20111;-80
2023/07/06 13:43:46;;;;;;;4.07;3.05;;;;;;;;;;5018868;28;20060;-80
2023/07/06 13:46:11;;;;;;;7.72;3.58;;;;;;;;;;5035615;28;20036;-79
2023/07/06 13:48:38;;;;;;;5.68;3.35;;;;;;;;;;5035101;28;20033;-79
2023/07/06 13:51:03;;;;;;;3.90;3.40;;;;;;;;;;5053184;28;20123;-79
2023/07/06 13:53:29;;;;;;;5.93;3.20;;;;;;;;;;5036660;28;20187;-79
2023/07/06 13:55:54;;;;;;;8.40;7.15;;;;;;;;;;5036608;28;20353;-80
2023/07/06 13:58:21;;;;;;;4.97;3.50;;;;;;;;;;5036461;28;20040;-80
2023/07/06 14:00:47;;;;;;;4.78;3.90;;;;;;;;;;5036598;28;20493;-79
2023/07/06 14:03:15;;;;;;;4.00;3.70;;;;;;;;;;5003750;28;20078;-79
2023/07/06 14:05:42;;;;;;;6.15;4.78;;;;;;;;;;5036793;28;20032;-79
2023/07/06 14:08:09;;;;;;;6.68;4.60;;;;;;;;;;5036659;28;20459;-79
2023/07/06 14:10:34;;;;;;;7.68;5.15;;;;;;;;;;5053852;28;20095;-81
2023/07/06 14:13:00;;;;;;;5.35;3.50;;;;;;;;;;5054250;28;20451;-80
2023/07/06 14:15:25;;;;;;;4.03;3.65;;;;;;;;;;5037077;28;20035;-79
2023/07/06 14:17:51;;;;;;;5.43;4.35;;;;;;;;;;5036701;28;20035;-80
2023/07/06 14:20:17;;;;;;;3.90;3.42;;;;;;;;;;5054330;28;20107;-81
2023/07/06 14:22:42;;;;;;;8.05;4.13;;;;;;;;;;5036367;28;20039;-79
2023/07/06 14:25:19;;;;;;;4.88;4.07;;;;;;;;;;5019888;28;20029;-80
2023/07/06 14:27:44;;;;;;;8.85;4.45;;;;;;;;;;5036986;28;20060;-81
2023/07/06 14:30:21;;;;;;;6.18;4.00;;;;;;;;;;5005464;28;20065;-80
2023/07/06 14:32:50;;;;;;;7.35;4.43;;;;;;;;;;5058123;28;20110;-79
2023/07/06 14:35:16;;;;;;;6.27;5.30;;;;;;;;;;5054318;28;20063;-80
2023/07/06 14:37:42;;;;;;;6.93;4.38;;;;;;;;;;5018785;28;20064;-80
2023/07/06 14:40:08;;;;;;;4.95;4.32;;;;;;;;;;5036209;28;20048;-79
2023/07/06 14:42:34;;;;;;;5.72;4.05;;;;;;;;;;5053773;28;20033;-81
2023/07/06 14:45:00;;;;;;;5.85;3.88;;;;;;;;;;5053761;28;20045;-78
2023/07/06 14:47:25;;;;;;;4.47;4.07;;;;;;;;;;5053529;28;20036;-80
2023/07/06 14:49:51;;;;;;;5.45;4.20;;;;;;;;;;5053477;28;20040;-79